createdAt,value
2022-10-04T00:00:44.194Z,66.67
2022-10-04T00:03:52.264Z,64.69
2022-10-04T00:07:02.574Z,65.98
2022-10-04T00:10:18.341Z,65.50
2022-10-04T00:13:26.203Z,64.61
2022-10-04T00:16:32.815Z,63.80
2022-10-04T00:19:47.129Z,64.78
2022-10-04T00:23:29.643Z,64.14
2022-10-04T00:27:11.801Z,62.66
2022-10-04T00:30:22.507Z,63.30
2022-10-04T00:33:35.745Z,65.09
2022-10-04T00:36:53.225Z,66.08
2022-10-04T00:40:04.306Z,65.04
2022-10-04T00:43:09.948Z,65.85
2022-10-04T00:46:15.983Z,64.24
2022-10-04T00:49:21.785Z,63.64
2022-10-04T00:52:30.212Z,62.81
2022-10-04T00:55:39.410Z,63.31
2022-10-04T00:58:51.187Z,62.88
2022-10-04T01:01:58.219Z,62.58
2022-10-04T01:05:04.201Z,62.54
2022-10-04T01:08:13.095Z,62.53
2022-10-04T01:11:20.286Z,63.99
2022-10-04T01:14:33.551Z,63.14
2022-10-04T01:17:36.032Z,63.21
2022-10-04T01:20:41.244Z,65.15
2022-10-04T01:23:47.017Z,65.55
2022-10-04T01:26:49.666Z,64.93
2022-10-04T01:29:52.320Z,64.08
2022-10-04T01:32:54.884Z,65.87
2022-10-04T01:35:57.711Z,63.66
2022-10-04T01:39:01.740Z,63.03
2022-10-04T01:42:10.303Z,62.94
2022-10-04T01:45:21.734Z,60.97
2022-10-04T01:48:29.020Z,61.27
2022-10-04T01:51:34.966Z,62.69
2022-10-04T01:54:43.544Z,62.12
2022-10-04T01:57:50.518Z,60.82
2022-10-04T02:00:59.283Z,58.89
2022-10-04T02:04:06.722Z,61.55
2022-10-04T02:07:14.340Z,62.02
2022-10-04T02:10:21.715Z,63.16
2022-10-04T02:13:29.977Z,62.25
2022-10-04T02:16:38.475Z,63.24
2022-10-04T02:19:45.043Z,60.55
2022-10-04T02:22:51.765Z,60.58
2022-10-04T02:25:55.640Z,60.47
2022-10-04T02:28:58.219Z,62.11
2022-10-04T02:32:33.821Z,60.93
2022-10-04T02:35:38.964Z,63.12
2022-10-04T02:38:45.373Z,62.37
2022-10-04T02:41:53.079Z,62.33
2022-10-04T02:45:02.791Z,63.11
2022-10-04T02:48:14.103Z,63.45
2022-10-04T02:51:21.986Z,61.51
2022-10-04T02:54:31.900Z,60.80
2022-10-04T02:57:36.460Z,61.06
2022-10-04T03:00:48.174Z,59.62
2022-10-04T03:03:50.865Z,60.46
2022-10-04T03:06:55.958Z,58.64
2022-10-04T03:09:58.564Z,60.40
2022-10-04T03:13:02.905Z,62.02
2022-10-04T03:16:06.914Z,63.19
2022-10-04T03:19:11.755Z,64.66
2022-10-04T03:22:14.292Z,64.72
2022-10-04T03:25:19.552Z,64.00
2022-10-04T03:28:23.819Z,64.80
2022-10-04T03:31:28.328Z,63.41
2022-10-04T03:34:37.555Z,63.85
2022-10-04T03:37:41.391Z,62.75
2022-10-04T03:40:51.593Z,63.38
2022-10-04T03:43:56.008Z,64.28
2022-10-04T03:47:00.391Z,63.30
2022-10-04T03:50:07.694Z,63.74
2022-10-04T03:53:16.931Z,63.67
2022-10-04T03:56:22.856Z,62.68
2022-10-04T03:59:29.476Z,64.29
2022-10-04T04:02:39.527Z,62.89
2022-10-04T04:05:48.039Z,62.71
2022-10-04T04:08:54.225Z,64.12
2022-10-04T04:11:58.761Z,64.57
2022-10-04T04:15:07.209Z,63.81
2022-10-04T04:18:15.985Z,63.33
2022-10-04T04:21:20.777Z,63.61
2022-10-04T04:24:29.135Z,65.30
2022-10-04T04:27:37.390Z,65.21
2022-10-04T04:30:46.760Z,64.94
2022-10-04T04:33:59.250Z,64.94
2022-10-04T04:37:03.172Z,64.13
2022-10-04T04:40:25.464Z,64.38
2022-10-04T04:43:28.846Z,63.62
2022-10-04T04:46:33.293Z,63.78
2022-10-04T04:49:39.835Z,63.25
2022-10-04T04:52:46.037Z,62.42
2022-10-04T04:56:03.222Z,61.71
2022-10-04T04:59:08.963Z,62.94
2022-10-04T05:02:35.380Z,62.63
2022-10-04T05:05:38.139Z,62.96
2022-10-04T05:08:41.667Z,64.91
2022-10-04T05:11:44.426Z,63.07
2022-10-04T05:14:50.168Z,62.41
2022-10-04T05:17:54.135Z,62.28
2022-10-04T05:20:59.176Z,61.17
2022-10-04T05:24:12.480Z,60.53
2022-10-04T05:27:18.132Z,60.65
2022-10-04T05:30:40.803Z,61.20
2022-10-04T05:33:50.626Z,60.96
2022-10-04T05:37:16.815Z,61.84
2022-10-04T05:40:33.047Z,63.07
2022-10-04T05:43:38.388Z,63.66
2022-10-04T05:46:44.079Z,62.18
2022-10-04T05:49:48.527Z,60.84
2022-10-04T05:52:52.812Z,59.71
2022-10-04T05:56:07.554Z,61.76
2022-10-04T05:59:27.604Z,61.79
2022-10-04T06:02:47.812Z,61.12
2022-10-04T06:05:55.859Z,60.79
2022-10-04T06:09:12.117Z,62.77
2022-10-04T06:12:30.080Z,63.71
2022-10-04T06:16:00.088Z,61.55
2022-10-04T06:19:23.956Z,61.00
2022-10-04T06:22:27.898Z,59.90
2022-10-04T06:25:39.520Z,62.48
2022-10-04T06:28:46.610Z,62.33
2022-10-04T06:32:08.909Z,62.14
2022-10-04T06:35:26.297Z,64.52
2022-10-04T06:38:54.335Z,62.22
2022-10-04T06:42:21.297Z,60.96
2022-10-04T06:45:36.355Z,61.47
2022-10-04T06:49:14.791Z,60.35
2022-10-04T06:52:36.585Z,59.87
2022-10-04T06:56:19.597Z,59.61
2022-10-04T06:59:47.549Z,60.00
2022-10-04T07:02:56.309Z,58.62
2022-10-04T07:06:03.326Z,56.81
2022-10-04T07:09:14.012Z,57.55
2022-10-04T07:12:19.347Z,56.73
2022-10-04T07:15:27.364Z,58.05
2022-10-04T07:18:35.297Z,57.14
2022-10-04T07:21:46.192Z,56.88
2022-10-04T07:25:08.423Z,55.37
2022-10-04T07:28:34.847Z,58.33
2022-10-04T07:31:38.771Z,55.32
2022-10-04T07:34:46.415Z,55.75
2022-10-04T07:37:54.133Z,57.60
2022-10-04T07:41:08.473Z,57.15
2022-10-04T07:44:20.728Z,60.45
2022-10-04T07:47:27.704Z,63.17
2022-10-04T07:50:34.375Z,63.74
2022-10-04T07:53:44.729Z,61.16
2022-10-04T07:56:55.505Z,59.63
2022-10-04T08:00:05.487Z,59.04
2022-10-04T08:03:23.223Z,56.58
2022-10-04T08:06:34.584Z,58.05
2022-10-04T08:09:46.360Z,56.27
2022-10-04T08:12:53.321Z,55.28
2022-10-04T08:16:02.268Z,54.54
2022-10-04T08:19:24.760Z,55.07
2022-10-04T08:22:40.927Z,54.60
2022-10-04T08:25:52.241Z,55.41
2022-10-04T08:29:24.812Z,55.40
2022-10-04T08:33:06.314Z,54.91
2022-10-04T08:36:23.815Z,54.28
2022-10-04T08:39:41.692Z,55.02
2022-10-04T08:43:06.625Z,54.04
2022-10-04T08:46:33.798Z,50.78
2022-10-04T08:50:20.426Z,49.69
2022-10-04T08:53:53.679Z,50.57
2022-10-04T08:57:16.287Z,50.29
2022-10-04T09:00:26.460Z,50.64
2022-10-04T09:03:51.530Z,51.55
2022-10-04T09:07:14.661Z,51.88
2022-10-04T09:10:40.356Z,50.21
2022-10-04T09:14:09.600Z,50.25
2022-10-04T09:17:22.638Z,50.44
2022-10-04T09:20:41.748Z,50.54
2022-10-04T09:24:16.174Z,51.39
2022-10-04T09:27:54.118Z,50.19
2022-10-04T09:31:16.404Z,47.67
2022-10-04T09:34:38.715Z,49.23
2022-10-04T09:38:02.640Z,48.13
2022-10-04T09:41:43.860Z,48.77
2022-10-04T09:45:06.260Z,48.79
2022-10-04T09:48:26.146Z,47.48
2022-10-04T09:51:45.275Z,48.94
2022-10-04T09:55:24.052Z,47.37
2022-10-04T09:58:48.420Z,48.34
2022-10-04T10:02:18.535Z,48.44
2022-10-04T10:05:31.027Z,47.12
2022-10-04T10:08:42.682Z,48.57
2022-10-04T10:12:12.032Z,48.49
2022-10-04T10:15:25.915Z,51.01
2022-10-04T10:18:43.306Z,50.15
2022-10-04T10:21:56.905Z,50.50
2022-10-04T10:25:09.279Z,50.47
2022-10-04T10:28:34.309Z,51.01
2022-10-04T10:31:55.277Z,47.22
2022-10-04T10:35:17.251Z,46.99
2022-10-04T10:38:32.154Z,46.95
2022-10-04T10:41:53.053Z,46.94
2022-10-04T10:45:21.194Z,48.69
2022-10-04T10:48:36.667Z,47.46
2022-10-04T10:52:11.874Z,47.83
2022-10-04T10:56:02.475Z,45.61
2022-10-04T10:59:55.462Z,49.85
2022-10-04T11:03:31.131Z,48.81
2022-10-04T11:07:20.520Z,50.81
2022-10-04T11:10:51.248Z,49.50
2022-10-04T11:14:14.833Z,49.17
2022-10-04T11:17:50.719Z,46.49
2022-10-04T11:21:21.789Z,44.64
2022-10-04T11:24:56.248Z,44.43
2022-10-04T11:28:12.499Z,44.09
2022-10-04T11:32:07.251Z,43.87
2022-10-04T11:35:39.725Z,44.22
2022-10-04T11:38:58.963Z,45.51
2022-10-04T11:42:12.140Z,44.89
2022-10-04T11:45:43.837Z,44.48
2022-10-04T11:48:59.754Z,42.58
2022-10-04T11:52:27.149Z,40.89
2022-10-04T11:55:54.684Z,39.71
2022-10-04T11:59:18.320Z,39.63
2022-10-04T12:02:56.524Z,39.87
2022-10-04T12:06:11.036Z,41.74
2022-10-04T12:09:20.736Z,42.37
2022-10-04T12:13:07.078Z,41.25
2022-10-04T12:16:33.879Z,42.03
2022-10-04T12:19:59.646Z,42.03
2022-10-04T12:23:21.879Z,44.60
2022-10-04T12:26:44.648Z,44.67
2022-10-04T12:30:12.466Z,43.88
2022-10-04T12:33:23.713Z,43.08
2022-10-04T12:36:39.441Z,42.57
2022-10-04T12:40:04.666Z,43.04
2022-10-04T12:43:14.800Z,42.74
2022-10-04T12:46:26.762Z,44.09
2022-10-04T12:49:41.015Z,43.41
2022-10-04T12:52:52.752Z,44.95
2022-10-04T12:56:05.375Z,45.65
2022-10-04T12:59:20.563Z,46.58
2022-10-04T13:02:36.455Z,46.67
2022-10-04T13:05:51.004Z,46.80
2022-10-04T13:09:08.659Z,46.26
2022-10-04T13:12:29.167Z,46.15
2022-10-04T13:19:12.819Z,45.57
2022-10-04T13:26:23.886Z,43.80
2022-10-04T13:29:32.083Z,44.47
2022-10-04T13:32:43.771Z,47.49
2022-10-04T13:35:54.821Z,46.82
2022-10-04T13:39:16.925Z,46.74
2022-10-04T13:42:40.311Z,46.00
2022-10-04T13:45:53.337Z,46.13
2022-10-04T13:49:13.772Z,46.53
2022-10-04T13:52:47.000Z,45.86
2022-10-04T13:56:14.351Z,45.27
2022-10-04T13:59:32.208Z,44.76
2022-10-04T14:03:02.774Z,46.26
2022-10-04T14:06:30.695Z,46.08
2022-10-04T14:09:46.647Z,46.84
2022-10-04T14:13:27.982Z,46.99
2022-10-04T14:17:15.187Z,45.21
2022-10-04T14:20:48.537Z,46.06
2022-10-04T14:24:35.555Z,46.55
2022-10-04T14:28:17.689Z,45.26
2022-10-04T14:31:23.987Z,44.37
2022-10-04T14:35:00.519Z,45.08
2022-10-04T14:38:27.561Z,46.83
2022-10-04T14:42:11.045Z,45.96
2022-10-04T14:45:35.175Z,44.99
2022-10-04T14:48:54.536Z,45.59
2022-10-04T14:52:08.753Z,46.56
2022-10-04T14:55:26.223Z,46.75
2022-10-04T14:58:42.267Z,46.78
2022-10-04T15:02:07.252Z,46.27
2022-10-04T15:05:32.077Z,47.00
2022-10-04T15:09:07.906Z,47.26
2022-10-04T15:13:09.478Z,47.30
2022-10-04T15:16:15.166Z,47.43
2022-10-04T15:19:27.025Z,47.21
2022-10-04T15:22:31.642Z,46.70
2022-10-04T15:25:44.359Z,47.78
2022-10-04T15:29:03.855Z,48.10
2022-10-04T15:32:16.557Z,48.98
2022-10-04T15:35:28.756Z,48.89
2022-10-04T15:38:35.901Z,49.38
2022-10-04T15:41:49.765Z,48.90
2022-10-04T15:45:36.989Z,48.03
2022-10-04T15:48:54.562Z,47.76
2022-10-04T15:52:11.280Z,46.87
2022-10-04T15:55:25.021Z,48.75
2022-10-04T15:58:53.251Z,49.18
2022-10-04T16:02:37.384Z,51.19
2022-10-04T16:05:44.927Z,51.62
2022-10-04T16:09:06.773Z,52.79
2022-10-04T16:12:23.892Z,52.39
2022-10-04T16:15:35.543Z,53.06
2022-10-04T16:18:52.438Z,53.43
2022-10-04T16:22:08.792Z,54.39
2022-10-04T16:25:42.767Z,54.37
2022-10-04T16:28:56.245Z,54.93
2022-10-04T16:32:04.128Z,55.72
2022-10-04T16:35:16.373Z,56.98
2022-10-04T16:38:25.020Z,57.32
2022-10-04T16:41:35.151Z,57.60
2022-10-04T16:44:48.977Z,58.01
2022-10-04T16:47:58.440Z,57.63
2022-10-04T16:51:43.857Z,56.45
2022-10-04T16:55:01.691Z,57.11
2022-10-04T16:58:56.732Z,57.12
2022-10-04T17:02:27.689Z,56.73
2022-10-04T17:06:13.205Z,54.87
2022-10-04T17:09:25.074Z,54.52
2022-10-04T17:12:35.159Z,55.26
2022-10-04T17:15:48.837Z,57.68
2022-10-04T17:19:10.241Z,59.19
2022-10-04T17:22:28.793Z,60.58
2022-10-04T17:25:39.781Z,60.93
2022-10-04T17:28:51.801Z,60.21
2022-10-04T17:31:59.570Z,59.29
2022-10-04T17:35:17.538Z,59.78
2022-10-04T17:38:30.867Z,58.97
2022-10-04T17:41:50.968Z,60.36
2022-10-04T17:45:29.145Z,58.98
2022-10-04T17:48:55.721Z,58.67
2022-10-04T17:52:22.251Z,57.15
2022-10-04T17:55:29.412Z,59.96
2022-10-04T17:58:41.729Z,59.23
2022-10-04T18:01:48.623Z,60.46
2022-10-04T18:04:55.645Z,60.83
2022-10-04T18:08:03.775Z,60.42
2022-10-04T18:11:18.363Z,59.93
2022-10-04T18:14:39.610Z,59.28
2022-10-04T18:17:46.281Z,57.88
2022-10-04T18:21:05.263Z,58.35
2022-10-04T18:24:20.986Z,57.83
2022-10-04T18:27:26.331Z,55.90
2022-10-04T18:30:29.001Z,57.23
2022-10-04T18:33:48.208Z,56.05
2022-10-04T18:36:57.429Z,58.05
2022-10-04T18:40:14.749Z,59.74
2022-10-04T18:43:27.336Z,60.22
2022-10-04T18:46:39.824Z,64.72
2022-10-04T18:49:49.631Z,66.77
2022-10-04T18:53:14.703Z,65.37
2022-10-04T18:56:18.808Z,65.17
2022-10-04T18:59:53.194Z,67.61
2022-10-04T19:03:04.505Z,67.21
2022-10-04T19:06:16.637Z,67.09
2022-10-04T19:09:26.324Z,68.29
2022-10-04T19:12:35.055Z,68.18
2022-10-04T19:15:57.926Z,67.69
2022-10-04T19:19:20.673Z,68.57
2022-10-04T19:22:33.448Z,68.41
2022-10-04T19:25:39.284Z,69.59
2022-10-04T19:28:42.258Z,71.40
2022-10-04T19:31:53.719Z,72.76
2022-10-04T19:35:09.224Z,70.69
2022-10-04T19:38:25.665Z,70.57
2022-10-04T19:41:42.016Z,69.77
2022-10-04T19:45:02.190Z,70.62
2022-10-04T19:48:15.325Z,72.30
2022-10-04T19:51:28.810Z,70.56
2022-10-04T19:54:39.766Z,69.61
2022-10-04T19:57:44.164Z,68.74
2022-10-04T20:00:46.696Z,66.99
2022-10-04T20:04:12.501Z,65.87
2022-10-04T20:07:22.363Z,65.08
2022-10-04T20:10:33.449Z,64.21
2022-10-04T20:13:35.959Z,63.53
2022-10-04T20:17:04.396Z,62.99
2022-10-04T20:20:08.255Z,62.28
2022-10-04T20:23:12.737Z,62.33
2022-10-04T20:26:56.250Z,65.13
2022-10-04T20:30:01.814Z,64.00
2022-10-04T20:33:04.414Z,62.35
2022-10-04T20:36:09.923Z,61.71
2022-10-04T20:40:00.495Z,61.08
2022-10-04T20:43:26.049Z,60.99
2022-10-04T20:46:32.659Z,61.43
2022-10-04T20:49:35.197Z,61.55
2022-10-04T20:52:44.180Z,60.72
2022-10-04T20:55:46.927Z,59.95
2022-10-04T20:58:52.281Z,60.09
2022-10-04T21:02:03.809Z,59.13
2022-10-04T21:05:16.275Z,60.73
2022-10-04T21:08:25.241Z,60.36
2022-10-04T21:11:44.765Z,61.26
2022-10-04T21:15:03.017Z,61.54
2022-10-04T21:18:07.668Z,61.61
2022-10-04T21:21:10.707Z,61.31
2022-10-04T21:27:43.400Z,58.61
2022-10-04T21:30:45.867Z,57.70
2022-10-04T21:33:48.321Z,57.86
2022-10-04T21:36:50.827Z,57.92
2022-10-04T21:39:53.339Z,57.03
2022-10-04T21:42:57.142Z,56.58
2022-10-04T21:45:59.692Z,56.50
2022-10-04T21:49:02.176Z,56.95
2022-10-04T21:52:04.934Z,57.92
2022-10-04T21:55:10.575Z,58.10
2022-10-04T21:58:14.535Z,57.53
2022-10-04T22:01:17.286Z,57.92
2022-10-04T22:04:19.983Z,57.92
2022-10-04T22:07:22.446Z,57.66
2022-10-04T22:10:24.996Z,58.45
2022-10-04T22:13:28.843Z,57.34
2022-10-04T22:16:31.407Z,58.73
2022-10-04T22:19:33.906Z,56.72
2022-10-04T22:22:39.753Z,57.59
2022-10-04T22:25:42.475Z,57.77
2022-10-04T22:28:48.976Z,58.46
2022-10-04T22:31:52.914Z,57.25
2022-10-04T22:35:02.122Z,57.78
2022-10-04T22:38:06.509Z,56.47
2022-10-04T22:41:11.259Z,57.80
2022-10-04T22:44:17.100Z,57.00
2022-10-04T22:47:19.577Z,57.29
2022-10-04T22:50:30.129Z,56.60
2022-10-04T22:53:32.592Z,55.34
2022-10-04T22:56:35.011Z,54.89
2022-10-04T22:59:41.598Z,56.30
2022-10-04T23:02:44.165Z,56.86
2022-10-04T23:05:46.697Z,56.35
2022-10-04T23:08:49.190Z,57.05
2022-10-04T23:11:51.626Z,57.89
2022-10-04T23:14:55.575Z,58.62
2022-10-04T23:17:58.046Z,59.32
2022-10-04T23:21:01.968Z,59.00
2022-10-04T23:24:15.443Z,59.40
2022-10-04T23:27:18.773Z,59.22
2022-10-04T23:30:23.522Z,56.94
2022-10-04T23:33:26.004Z,57.11
2022-10-04T23:36:29.084Z,56.50
2022-10-04T23:39:34.649Z,58.10
2022-10-04T23:42:37.223Z,58.07
2022-10-04T23:45:42.071Z,59.03
2022-10-04T23:48:45.336Z,58.91
2022-10-04T23:51:48.779Z,60.07
2022-10-04T23:54:52.669Z,59.59
2022-10-04T23:57:55.124Z,58.20
